sensor_id;sensor_type;location;lat;lon;timestamp;temperature;humidity
18240;DHT22;9244;50.828;4.718;2023-09-08T00:02:23;18.00;99.90
18240;DHT22;9244;50.828;4.718;2023-09-08T00:04:48;18.00;99.90
18240;DHT22;9244;50.828;4.718;2023-09-08T00:07:14;18.00;99.90
18240;DHT22;9244;50.828;4.718;2023-09-08T00:09:39;18.00;99.90
18240;DHT22;9244;50.828;4.718;2023-09-08T00:12:05;18.00;99.90
18240;DHT22;9244;50.828;4.718;2023-09-08T00:14:31;17.80;99.90
18240;DHT22;9244;50.828;4.718;2023-09-08T00:16:57;17.70;99.90
18240;DHT22;9244;50.828;4.718;2023-09-08T00:19:23;17.80;99.90
18240;DHT22;9244;50.828;4.718;2023-09-08T00:21:49;17.80;99.90
18240;DHT22;9244;50.828;4.718;2023-09-08T00:24:15;17.70;99.90
18240;DHT22;9244;50.828;4.718;2023-09-08T00:26:41;17.80;99.90
18240;DHT22;9244;50.828;4.718;2023-09-08T00:29:06;17.80;99.90
18240;DHT22;9244;50.828;4.718;2023-09-08T00:31:33;17.80;99.90
18240;DHT22;9244;50.828;4.718;2023-09-08T00:33:58;17.80;99.90
18240;DHT22;9244;50.828;4.718;2023-09-08T00:36:24;17.90;99.90
18240;DHT22;9244;50.828;4.718;2023-09-08T00:38:50;17.80;99.90
18240;DHT22;9244;50.828;4.718;2023-09-08T00:41:15;17.80;99.90
18240;DHT22;9244;50.828;4.718;2023-09-08T00:43:41;17.80;99.90
18240;DHT22;9244;50.828;4.718;2023-09-08T00:46:07;17.70;99.90
18240;DHT22;9244;50.828;4.718;2023-09-08T00:48:33;17.70;99.90
18240;DHT22;9244;50.828;4.718;2023-09-08T00:51:00;17.60;99.90
18240;DHT22;9244;50.828;4.718;2023-09-08T00:53:26;17.50;99.90
18240;DHT22;9244;50.828;4.718;2023-09-08T00:55:52;17.50;99.90
18240;DHT22;9244;50.828;4.718;2023-09-08T00:58:18;17.60;99.90
18240;DHT22;9244;50.828;4.718;2023-09-08T01:00:44;17.40;99.90
18240;DHT22;9244;50.828;4.718;2023-09-08T01:03:11;17.50;99.90
18240;DHT22;9244;50.828;4.718;2023-09-08T01:05:37;17.50;99.90
18240;DHT22;9244;50.828;4.718;2023-09-08T01:08:03;17.50;99.90
18240;DHT22;9244;50.828;4.718;2023-09-08T01:10:29;17.30;99.90
18240;DHT22;9244;50.828;4.718;2023-09-08T01:12:55;17.40;99.90
18240;DHT22;9244;50.828;4.718;2023-09-08T01:15:20;17.40;99.90
18240;DHT22;9244;50.828;4.718;2023-09-08T01:17:46;17.50;99.90
18240;DHT22;9244;50.828;4.718;2023-09-08T01:20:20;17.50;99.90
18240;DHT22;9244;50.828;4.718;2023-09-08T01:22:54;17.40;99.90
18240;DHT22;9244;50.828;4.718;2023-09-08T01:25:21;17.40;99.90
18240;DHT22;9244;50.828;4.718;2023-09-08T01:27:50;17.40;99.90
18240;DHT22;9244;50.828;4.718;2023-09-08T01:30:16;17.40;99.90
18240;DHT22;9244;50.828;4.718;2023-09-08T01:32:43;17.50;99.90
18240;DHT22;9244;50.828;4.718;2023-09-08T01:35:09;17.50;99.90
18240;DHT22;9244;50.828;4.718;2023-09-08T01:37:36;17.40;99.90
18240;DHT22;9244;50.828;4.718;2023-09-08T01:40:04;17.20;99.90
18240;DHT22;9244;50.828;4.718;2023-09-08T01:42:30;17.10;99.90
18240;DHT22;9244;50.828;4.718;2023-09-08T01:44:56;17.10;99.90
18240;DHT22;9244;50.828;4.718;2023-09-08T01:47:21;17.10;99.90
18240;DHT22;9244;50.828;4.718;2023-09-08T01:49:47;17.20;99.90
18240;DHT22;9244;50.828;4.718;2023-09-08T01:52:12;17.20;99.90
18240;DHT22;9244;50.828;4.718;2023-09-08T01:54:38;17.30;99.90
18240;DHT22;9244;50.828;4.718;2023-09-08T01:57:04;17.30;99.90
18240;DHT22;9244;50.828;4.718;2023-09-08T01:59:29;17.30;99.90
18240;DHT22;9244;50.828;4.718;2023-09-08T02:01:55;17.30;99.90
18240;DHT22;9244;50.828;4.718;2023-09-08T02:04:21;17.30;99.90
18240;DHT22;9244;50.828;4.718;2023-09-08T02:06:46;17.30;99.90
18240;DHT22;9244;50.828;4.718;2023-09-08T02:09:14;17.30;99.90
18240;DHT22;9244;50.828;4.718;2023-09-08T02:11:40;17.30;99.90
18240;DHT22;9244;50.828;4.718;2023-09-08T02:14:05;17.30;99.90
18240;DHT22;9244;50.828;4.718;2023-09-08T02:16:32;17.20;99.90
18240;DHT22;9244;50.828;4.718;2023-09-08T02:18:57;17.10;99.90
18240;DHT22;9244;50.828;4.718;2023-09-08T02:21:24;17.20;99.90
18240;DHT22;9244;50.828;4.718;2023-09-08T02:23:50;17.10;99.90
18240;DHT22;9244;50.828;4.718;2023-09-08T02:26:15;17.00;99.90
18240;DHT22;9244;50.828;4.718;2023-09-08T02:28:41;17.00;99.90
18240;DHT22;9244;50.828;4.718;2023-09-08T02:31:06;17.00;99.90
18240;DHT22;9244;50.828;4.718;2023-09-08T02:33:32;17.00;99.90
18240;DHT22;9244;50.828;4.718;2023-09-08T02:36:04;17.10;99.90
18240;DHT22;9244;50.828;4.718;2023-09-08T02:38:31;17.10;99.90
18240;DHT22;9244;50.828;4.718;2023-09-08T02:40:57;17.10;99.90
18240;DHT22;9244;50.828;4.718;2023-09-08T02:43:23;17.10;99.90
18240;DHT22;9244;50.828;4.718;2023-09-08T02:45:49;17.10;99.90
18240;DHT22;9244;50.828;4.718;2023-09-08T02:48:15;17.10;99.90
18240;DHT22;9244;50.828;4.718;2023-09-08T02:50:42;17.20;99.90
18240;DHT22;9244;50.828;4.718;2023-09-08T02:53:08;17.20;99.90
18240;DHT22;9244;50.828;4.718;2023-09-08T02:55:34;17.10;99.90
18240;DHT22;9244;50.828;4.718;2023-09-08T02:57:59;17.00;99.90
18240;DHT22;9244;50.828;4.718;2023-09-08T03:00:25;16.80;99.90
18240;DHT22;9244;50.828;4.718;2023-09-08T03:02:51;16.80;99.90
18240;DHT22;9244;50.828;4.718;2023-09-08T03:05:16;16.90;99.90
18240;DHT22;9244;50.828;4.718;2023-09-08T03:07:42;16.90;99.90
18240;DHT22;9244;50.828;4.718;2023-09-08T03:10:08;16.70;99.90
18240;DHT22;9244;50.828;4.718;2023-09-08T03:12:34;16.60;99.90
18240;DHT22;9244;50.828;4.718;2023-09-08T03:15:01;16.60;99.90
18240;DHT22;9244;50.828;4.718;2023-09-08T03:17:27;16.60;99.90
18240;DHT22;9244;50.828;4.718;2023-09-08T03:19:53;16.70;99.90
18240;DHT22;9244;50.828;4.718;2023-09-08T03:22:18;16.60;99.90
18240;DHT22;9244;50.828;4.718;2023-09-08T03:24:44;16.50;99.90
18240;DHT22;9244;50.828;4.718;2023-09-08T03:27:09;16.60;99.90
18240;DHT22;9244;50.828;4.718;2023-09-08T03:29:35;16.70;99.90
18240;DHT22;9244;50.828;4.718;2023-09-08T03:32:01;16.60;99.90
18240;DHT22;9244;50.828;4.718;2023-09-08T03:34:26;16.60;99.90
18240;DHT22;9244;50.828;4.718;2023-09-08T03:36:53;16.50;99.90
18240;DHT22;9244;50.828;4.718;2023-09-08T03:39:19;16.60;99.90
18240;DHT22;9244;50.828;4.718;2023-09-08T03:41:45;16.50;99.90
18240;DHT22;9244;50.828;4.718;2023-09-08T03:44:11;16.40;99.90
18240;DHT22;9244;50.828;4.718;2023-09-08T03:46:36;16.30;99.90
18240;DHT22;9244;50.828;4.718;2023-09-08T03:49:02;16.30;99.90
18240;DHT22;9244;50.828;4.718;2023-09-08T03:51:28;16.40;99.90
18240;DHT22;9244;50.828;4.718;2023-09-08T03:53:54;16.50;99.90
18240;DHT22;9244;50.828;4.718;2023-09-08T03:56:20;16.50;99.90
18240;DHT22;9244;50.828;4.718;2023-09-08T03:58:49;16.60;99.90
18240;DHT22;9244;50.828;4.718;2023-09-08T04:01:15;16.70;99.90
18240;DHT22;9244;50.828;4.718;2023-09-08T04:03:40;16.50;99.90
18240;DHT22;9244;50.828;4.718;2023-09-08T04:06:06;16.50;99.90
18240;DHT22;9244;50.828;4.718;2023-09-08T04:08:31;16.40;99.90
18240;DHT22;9244;50.828;4.718;2023-09-08T04:10:57;16.30;99.90
18240;DHT22;9244;50.828;4.718;2023-09-08T04:13:23;16.40;99.90
18240;DHT22;9244;50.828;4.718;2023-09-08T04:15:48;16.40;99.90
18240;DHT22;9244;50.828;4.718;2023-09-08T04:18:14;16.20;99.90
18240;DHT22;9244;50.828;4.718;2023-09-08T04:20:39;16.30;99.90
18240;DHT22;9244;50.828;4.718;2023-09-08T04:23:05;16.20;99.90
18240;DHT22;9244;50.828;4.718;2023-09-08T04:25:31;16.20;99.90
18240;DHT22;9244;50.828;4.718;2023-09-08T04:27:56;16.30;99.90
18240;DHT22;9244;50.828;4.718;2023-09-08T04:30:22;16.20;99.90
18240;DHT22;9244;50.828;4.718;2023-09-08T04:32:47;16.20;99.90
18240;DHT22;9244;50.828;4.718;2023-09-08T04:35:13;16.10;99.90
18240;DHT22;9244;50.828;4.718;2023-09-08T04:37:39;16.10;99.90
18240;DHT22;9244;50.828;4.718;2023-09-08T04:40:06;16.10;99.90
18240;DHT22;9244;50.828;4.718;2023-09-08T04:42:33;15.90;99.90
18240;DHT22;9244;50.828;4.718;2023-09-08T04:44:58;15.80;99.90
18240;DHT22;9244;50.828;4.718;2023-09-08T04:47:24;15.80;99.90
18240;DHT22;9244;50.828;4.718;2023-09-08T04:49:49;16.00;99.90
18240;DHT22;9244;50.828;4.718;2023-09-08T04:52:15;15.90;99.90
18240;DHT22;9244;50.828;4.718;2023-09-08T04:54:40;15.80;99.90
18240;DHT22;9244;50.828;4.718;2023-09-08T04:57:06;15.70;99.90
18240;DHT22;9244;50.828;4.718;2023-09-08T04:59:32;15.80;99.90
18240;DHT22;9244;50.828;4.718;2023-09-08T05:01:58;16.00;99.90
18240;DHT22;9244;50.828;4.718;2023-09-08T05:04:24;16.00;99.90
18240;DHT22;9244;50.828;4.718;2023-09-08T05:06:50;15.90;99.90
18240;DHT22;9244;50.828;4.718;2023-09-08T05:09:16;16.00;99.90
18240;DHT22;9244;50.828;4.718;2023-09-08T05:11:42;16.00;99.90
18240;DHT22;9244;50.828;4.718;2023-09-08T05:14:08;16.10;99.90
18240;DHT22;9244;50.828;4.718;2023-09-08T05:16:33;16.10;99.90
18240;DHT22;9244;50.828;4.718;2023-09-08T05:19:04;16.20;99.90
18240;DHT22;9244;50.828;4.718;2023-09-08T05:21:34;16.10;99.90
18240;DHT22;9244;50.828;4.718;2023-09-08T05:24:00;16.10;99.90
18240;DHT22;9244;50.828;4.718;2023-09-08T05:26:25;16.10;99.90
18240;DHT22;9244;50.828;4.718;2023-09-08T05:28:51;16.10;99.90
18240;DHT22;9244;50.828;4.718;2023-09-08T05:31:17;16.20;99.90
18240;DHT22;9244;50.828;4.718;2023-09-08T05:33:42;16.10;99.90
18240;DHT22;9244;50.828;4.718;2023-09-08T05:36:08;16.10;99.90
18240;DHT22;9244;50.828;4.718;2023-09-08T05:38:33;16.20;99.90
18240;DHT22;9244;50.828;4.718;2023-09-08T05:40:59;16.30;99.90
18240;DHT22;9244;50.828;4.718;2023-09-08T05:43:25;16.30;99.90
18240;DHT22;9244;50.828;4.718;2023-09-08T05:45:51;16.30;99.90
18240;DHT22;9244;50.828;4.718;2023-09-08T05:48:16;16.40;99.90
18240;DHT22;9244;50.828;4.718;2023-09-08T05:50:42;16.50;99.90
18240;DHT22;9244;50.828;4.718;2023-09-08T05:53:08;16.50;99.90
18240;DHT22;9244;50.828;4.718;2023-09-08T05:55:33;16.60;99.90
18240;DHT22;9244;50.828;4.718;2023-09-08T05:57:59;16.70;99.90
18240;DHT22;9244;50.828;4.718;2023-09-08T06:00:25;16.80;99.90
18240;DHT22;9244;50.828;4.718;2023-09-08T06:02:51;16.90;99.90
18240;DHT22;9244;50.828;4.718;2023-09-08T06:05:17;16.90;99.90
18240;DHT22;9244;50.828;4.718;2023-09-08T06:07:43;17.00;99.90
18240;DHT22;9244;50.828;4.718;2023-09-08T06:10:09;17.00;99.90
18240;DHT22;9244;50.828;4.718;2023-09-08T06:12:34;17.00;99.90
18240;DHT22;9244;50.828;4.718;2023-09-08T06:15:02;16.90;99.90
18240;DHT22;9244;50.828;4.718;2023-09-08T06:17:28;17.00;99.90
18240;DHT22;9244;50.828;4.718;2023-09-08T06:19:54;17.00;99.90
18240;DHT22;9244;50.828;4.718;2023-09-08T06:22:19;17.10;99.90
18240;DHT22;9244;50.828;4.718;2023-09-08T06:24:45;17.00;99.90
18240;DHT22;9244;50.828;4.718;2023-09-08T06:27:11;17.00;99.90
18240;DHT22;9244;50.828;4.718;2023-09-08T06:29:38;16.90;99.90
18240;DHT22;9244;50.828;4.718;2023-09-08T06:32:06;17.00;99.90
18240;DHT22;9244;50.828;4.718;2023-09-08T06:34:31;17.10;99.90
18240;DHT22;9244;50.828;4.718;2023-09-08T06:36:57;17.30;99.90
18240;DHT22;9244;50.828;4.718;2023-09-08T06:39:25;17.50;99.90
18240;DHT22;9244;50.828;4.718;2023-09-08T06:41:51;17.60;99.90
18240;DHT22;9244;50.828;4.718;2023-09-08T06:44:16;17.90;99.90
18240;DHT22;9244;50.828;4.718;2023-09-08T06:46:42;18.20;99.90
18240;DHT22;9244;50.828;4.718;2023-09-08T06:49:07;18.40;99.90
18240;DHT22;9244;50.828;4.718;2023-09-08T06:51:33;18.50;99.90
18240;DHT22;9244;50.828;4.718;2023-09-08T06:53:59;18.70;99.90
18240;DHT22;9244;50.828;4.718;2023-09-08T06:56:28;18.70;99.90
18240;DHT22;9244;50.828;4.718;2023-09-08T06:58:53;18.90;99.90
18240;DHT22;9244;50.828;4.718;2023-09-08T07:01:19;19.00;99.90
18240;DHT22;9244;50.828;4.718;2023-09-08T07:03:45;19.10;99.90
18240;DHT22;9244;50.828;4.718;2023-09-08T07:06:10;19.20;99.90
18240;DHT22;9244;50.828;4.718;2023-09-08T07:08:36;19.30;99.90
18240;DHT22;9244;50.828;4.718;2023-09-08T07:11:02;19.50;99.90
18240;DHT22;9244;50.828;4.718;2023-09-08T07:13:27;19.70;99.90
18240;DHT22;9244;50.828;4.718;2023-09-08T07:15:53;19.90;99.90
18240;DHT22;9244;50.828;4.718;2023-09-08T07:18:18;20.10;99.90
18240;DHT22;9244;50.828;4.718;2023-09-08T07:20:48;20.50;99.90
18240;DHT22;9244;50.828;4.718;2023-09-08T07:23:14;21.00;99.90
18240;DHT22;9244;50.828;4.718;2023-09-08T07:25:39;21.50;99.90
18240;DHT22;9244;50.828;4.718;2023-09-08T07:28:05;22.30;99.90
18240;DHT22;9244;50.828;4.718;2023-09-08T07:30:34;22.60;99.90
18240;DHT22;9244;50.828;4.718;2023-09-08T07:32:59;22.80;99.90
18240;DHT22;9244;50.828;4.718;2023-09-08T07:35:25;23.30;99.90
18240;DHT22;9244;50.828;4.718;2023-09-08T07:37:50;23.80;99.90
18240;DHT22;9244;50.828;4.718;2023-09-08T07:40:16;24.00;99.90
18240;DHT22;9244;50.828;4.718;2023-09-08T07:42:42;24.40;99.90
18240;DHT22;9244;50.828;4.718;2023-09-08T07:45:08;24.30;99.90
18240;DHT22;9244;50.828;4.718;2023-09-08T07:47:35;24.60;99.90
18240;DHT22;9244;50.828;4.718;2023-09-08T07:52:44;24.80;99.90
18240;DHT22;9244;50.828;4.718;2023-09-08T07:55:09;25.00;99.90
18240;DHT22;9244;50.828;4.718;2023-09-08T07:57:35;25.00;99.90
18240;DHT22;9244;50.828;4.718;2023-09-08T08:00:01;24.80;99.90
18240;DHT22;9244;50.828;4.718;2023-09-08T08:02:27;25.10;99.90
18240;DHT22;9244;50.828;4.718;2023-09-08T08:04:52;25.00;99.90
18240;DHT22;9244;50.828;4.718;2023-09-08T08:07:18;25.20;99.90
18240;DHT22;9244;50.828;4.718;2023-09-08T08:09:43;25.20;99.90
18240;DHT22;9244;50.828;4.718;2023-09-08T08:12:09;25.40;99.90
18240;DHT22;9244;50.828;4.718;2023-09-08T08:14:34;25.60;99.90
18240;DHT22;9244;50.828;4.718;2023-09-08T08:17:00;25.70;99.90
18240;DHT22;9244;50.828;4.718;2023-09-08T08:19:26;26.10;99.90
18240;DHT22;9244;50.828;4.718;2023-09-08T08:21:53;26.50;99.90
18240;DHT22;9244;50.828;4.718;2023-09-08T08:24:18;26.20;99.90
18240;DHT22;9244;50.828;4.718;2023-09-08T08:26:45;26.50;99.90
18240;DHT22;9244;50.828;4.718;2023-09-08T08:29:10;26.60;99.90
18240;DHT22;9244;50.828;4.718;2023-09-08T08:31:36;26.80;99.90
18240;DHT22;9244;50.828;4.718;2023-09-08T08:34:01;26.80;99.90
18240;DHT22;9244;50.828;4.718;2023-09-08T08:36:28;26.90;99.90
18240;DHT22;9244;50.828;4.718;2023-09-08T08:38:54;27.00;99.90
18240;DHT22;9244;50.828;4.718;2023-09-08T08:41:19;26.90;99.90
18240;DHT22;9244;50.828;4.718;2023-09-08T08:43:46;26.90;99.90
18240;DHT22;9244;50.828;4.718;2023-09-08T08:46:13;26.90;99.90
18240;DHT22;9244;50.828;4.718;2023-09-08T08:48:40;26.80;99.90
18240;DHT22;9244;50.828;4.718;2023-09-08T08:51:08;26.80;99.90
18240;DHT22;9244;50.828;4.718;2023-09-08T08:53:35;26.80;99.90
18240;DHT22;9244;50.828;4.718;2023-09-08T08:56:02;26.90;99.90
18240;DHT22;9244;50.828;4.718;2023-09-08T08:58:29;27.00;99.90
18240;DHT22;9244;50.828;4.718;2023-09-08T09:00:54;27.00;99.90
18240;DHT22;9244;50.828;4.718;2023-09-08T09:03:24;27.00;99.90
18240;DHT22;9244;50.828;4.718;2023-09-08T09:05:51;27.20;99.90
18240;DHT22;9244;50.828;4.718;2023-09-08T09:08:18;27.40;99.90
18240;DHT22;9244;50.828;4.718;2023-09-08T09:10:44;27.70;99.90
18240;DHT22;9244;50.828;4.718;2023-09-08T09:13:10;27.90;99.90
18240;DHT22;9244;50.828;4.718;2023-09-08T09:15:36;28.10;99.90
18240;DHT22;9244;50.828;4.718;2023-09-08T09:18:03;28.20;99.90
18240;DHT22;9244;50.828;4.718;2023-09-08T09:20:29;28.00;99.90
18240;DHT22;9244;50.828;4.718;2023-09-08T09:22:55;28.60;99.90
18240;DHT22;9244;50.828;4.718;2023-09-08T09:25:29;29.40;99.90
18240;DHT22;9244;50.828;4.718;2023-09-08T09:27:59;29.10;99.90
18240;DHT22;9244;50.828;4.718;2023-09-08T09:30:25;29.40;99.90
18240;DHT22;9244;50.828;4.718;2023-09-08T09:33:02;29.60;99.90
18240;DHT22;9244;50.828;4.718;2023-09-08T09:35:41;29.90;99.90
18240;DHT22;9244;50.828;4.718;2023-09-08T09:38:07;30.40;99.90
18240;DHT22;9244;50.828;4.718;2023-09-08T09:40:34;30.30;99.90
18240;DHT22;9244;50.828;4.718;2023-09-08T09:42:59;30.70;99.90
18240;DHT22;9244;50.828;4.718;2023-09-08T09:45:26;30.70;99.90
18240;DHT22;9244;50.828;4.718;2023-09-08T09:47:51;31.00;99.90
18240;DHT22;9244;50.828;4.718;2023-09-08T09:50:28;30.70;99.90
18240;DHT22;9244;50.828;4.718;2023-09-08T09:52:57;30.60;99.90
18240;DHT22;9244;50.828;4.718;2023-09-08T09:55:26;30.90;99.90
18240;DHT22;9244;50.828;4.718;2023-09-08T09:57:55;31.00;99.90
18240;DHT22;9244;50.828;4.718;2023-09-08T10:00:21;31.10;99.90
18240;DHT22;9244;50.828;4.718;2023-09-08T10:02:47;31.30;99.90
18240;DHT22;9244;50.828;4.718;2023-09-08T10:05:13;31.30;99.90
18240;DHT22;9244;50.828;4.718;2023-09-08T10:07:40;31.60;99.90
18240;DHT22;9244;50.828;4.718;2023-09-08T10:10:06;31.30;99.90
18240;DHT22;9244;50.828;4.718;2023-09-08T10:12:33;31.30;99.90
18240;DHT22;9244;50.828;4.718;2023-09-08T10:15:02;31.50;99.90
18240;DHT22;9244;50.828;4.718;2023-09-08T10:17:30;31.60;99.90
18240;DHT22;9244;50.828;4.718;2023-09-08T10:19:57;31.60;99.90
18240;DHT22;9244;50.828;4.718;2023-09-08T10:22:30;31.60;99.90
18240;DHT22;9244;50.828;4.718;2023-09-08T10:24:57;31.50;99.90
18240;DHT22;9244;50.828;4.718;2023-09-08T10:27:26;31.90;99.90
18240;DHT22;9244;50.828;4.718;2023-09-08T10:29:52;31.10;99.90
18240;DHT22;9244;50.828;4.718;2023-09-08T10:32:20;31.30;99.90
18240;DHT22;9244;50.828;4.718;2023-09-08T10:34:47;31.90;99.90
18240;DHT22;9244;50.828;4.718;2023-09-08T10:37:24;32.20;99.90
18240;DHT22;9244;50.828;4.718;2023-09-08T10:39:56;32.20;99.90
18240;DHT22;9244;50.828;4.718;2023-09-08T10:42:43;32.70;99.90
18240;DHT22;9244;50.828;4.718;2023-09-08T10:45:19;32.60;99.90
18240;DHT22;9244;50.828;4.718;2023-09-08T10:50:18;32.70;99.90
18240;DHT22;9244;50.828;4.718;2023-09-08T10:52:44;33.40;99.90
18240;DHT22;9244;50.828;4.718;2023-09-08T10:55:11;33.40;99.90
18240;DHT22;9244;50.828;4.718;2023-09-08T10:57:38;33.20;99.90
18240;DHT22;9244;50.828;4.718;2023-09-08T11:00:09;33.50;99.90
18240;DHT22;9244;50.828;4.718;2023-09-08T11:02:49;33.80;99.90
18240;DHT22;9244;50.828;4.718;2023-09-08T11:05:16;33.80;99.90
18240;DHT22;9244;50.828;4.718;2023-09-08T11:07:43;33.40;99.90
18240;DHT22;9244;50.828;4.718;2023-09-08T11:10:10;33.80;99.90
18240;DHT22;9244;50.828;4.718;2023-09-08T11:12:36;34.00;99.90
18240;DHT22;9244;50.828;4.718;2023-09-08T11:15:04;34.10;99.90
18240;DHT22;9244;50.828;4.718;2023-09-08T11:17:35;34.00;99.90
18240;DHT22;9244;50.828;4.718;2023-09-08T11:20:01;34.00;99.90
18240;DHT22;9244;50.828;4.718;2023-09-08T11:22:34;33.20;99.90
18240;DHT22;9244;50.828;4.718;2023-09-08T11:25:01;33.70;99.90
18240;DHT22;9244;50.828;4.718;2023-09-08T11:27:30;33.50;99.90
18240;DHT22;9244;50.828;4.718;2023-09-08T11:29:56;34.30;99.90
18240;DHT22;9244;50.828;4.718;2023-09-08T11:32:23;34.60;99.90
18240;DHT22;9244;50.828;4.718;2023-09-08T11:34:48;34.40;99.90
18240;DHT22;9244;50.828;4.718;2023-09-08T11:37:15;34.80;99.90
18240;DHT22;9244;50.828;4.718;2023-09-08T11:39:43;35.20;99.90
18240;DHT22;9244;50.828;4.718;2023-09-08T11:42:14;35.40;99.90
18240;DHT22;9244;50.828;4.718;2023-09-08T11:44:41;35.50;99.90
18240;DHT22;9244;50.828;4.718;2023-09-08T11:47:08;35.70;99.90
18240;DHT22;9244;50.828;4.718;2023-09-08T11:49:39;35.80;99.90
18240;DHT22;9244;50.828;4.718;2023-09-08T11:52:05;35.50;99.90
18240;DHT22;9244;50.828;4.718;2023-09-08T11:54:35;35.40;99.90
18240;DHT22;9244;50.828;4.718;2023-09-08T11:57:03;35.30;99.90
18240;DHT22;9244;50.828;4.718;2023-09-08T11:59:32;35.60;99.90
18240;DHT22;9244;50.828;4.718;2023-09-08T12:01:58;35.70;99.90
18240;DHT22;9244;50.828;4.718;2023-09-08T12:04:24;36.00;99.90
18240;DHT22;9244;50.828;4.718;2023-09-08T12:06:51;36.30;99.90
18240;DHT22;9244;50.828;4.718;2023-09-08T12:09:17;36.20;99.90
18240;DHT22;9244;50.828;4.718;2023-09-08T12:11:43;35.10;99.90
18240;DHT22;9244;50.828;4.718;2023-09-08T12:14:13;35.60;99.90
18240;DHT22;9244;50.828;4.718;2023-09-08T12:16:40;36.10;99.90
18240;DHT22;9244;50.828;4.718;2023-09-08T12:19:06;35.90;99.90
18240;DHT22;9244;50.828;4.718;2023-09-08T12:21:34;36.00;99.90
18240;DHT22;9244;50.828;4.718;2023-09-08T12:24:00;36.00;99.90
18240;DHT22;9244;50.828;4.718;2023-09-08T12:26:26;36.00;99.90
18240;DHT22;9244;50.828;4.718;2023-09-08T12:28:52;35.70;99.90
18240;DHT22;9244;50.828;4.718;2023-09-08T12:31:17;35.60;99.90
18240;DHT22;9244;50.828;4.718;2023-09-08T12:33:44;35.50;99.90
18240;DHT22;9244;50.828;4.718;2023-09-08T12:36:12;35.90;99.90
18240;DHT22;9244;50.828;4.718;2023-09-08T12:38:38;34.60;99.90
18240;DHT22;9244;50.828;4.718;2023-09-08T12:41:03;35.10;99.90
18240;DHT22;9244;50.828;4.718;2023-09-08T12:43:29;35.70;99.90
18240;DHT22;9244;50.828;4.718;2023-09-08T12:45:55;35.50;99.90
18240;DHT22;9244;50.828;4.718;2023-09-08T12:48:22;35.40;99.90
18240;DHT22;9244;50.828;4.718;2023-09-08T12:50:48;35.80;99.90
18240;DHT22;9244;50.828;4.718;2023-09-08T12:53:14;35.90;99.90
18240;DHT22;9244;50.828;4.718;2023-09-08T12:55:40;35.60;99.90
18240;DHT22;9244;50.828;4.718;2023-09-08T12:58:06;35.90;99.90
18240;DHT22;9244;50.828;4.718;2023-09-08T13:00:31;35.50;99.90
18240;DHT22;9244;50.828;4.718;2023-09-08T13:02:57;35.10;99.90
18240;DHT22;9244;50.828;4.718;2023-09-08T13:05:23;35.20;99.90
18240;DHT22;9244;50.828;4.718;2023-09-08T13:07:48;35.50;99.90
18240;DHT22;9244;50.828;4.718;2023-09-08T13:10:14;35.70;99.90
18240;DHT22;9244;50.828;4.718;2023-09-08T13:12:41;35.50;99.90
18240;DHT22;9244;50.828;4.718;2023-09-08T13:15:07;35.60;99.90
18240;DHT22;9244;50.828;4.718;2023-09-08T13:17:33;35.60;99.90
18240;DHT22;9244;50.828;4.718;2023-09-08T13:19:58;35.60;99.90
18240;DHT22;9244;50.828;4.718;2023-09-08T13:22:24;35.40;99.90
18240;DHT22;9244;50.828;4.718;2023-09-08T13:24:49;35.10;99.90
18240;DHT22;9244;50.828;4.718;2023-09-08T13:27:15;35.40;99.90
18240;DHT22;9244;50.828;4.718;2023-09-08T13:29:43;35.20;99.90
18240;DHT22;9244;50.828;4.718;2023-09-08T13:32:08;35.00;99.90
18240;DHT22;9244;50.828;4.718;2023-09-08T13:34:34;35.00;99.90
18240;DHT22;9244;50.828;4.718;2023-09-08T13:37:01;35.00;99.90
18240;DHT22;9244;50.828;4.718;2023-09-08T13:39:28;35.10;99.90
18240;DHT22;9244;50.828;4.718;2023-09-08T13:41:54;35.00;99.90
18240;DHT22;9244;50.828;4.718;2023-09-08T13:44:22;35.20;99.90
18240;DHT22;9244;50.828;4.718;2023-09-08T13:46:49;35.20;99.90
18240;DHT22;9244;50.828;4.718;2023-09-08T13:49:15;35.20;99.90
18240;DHT22;9244;50.828;4.718;2023-09-08T13:51:43;35.20;99.90
18240;DHT22;9244;50.828;4.718;2023-09-08T13:54:09;35.40;99.90
18240;DHT22;9244;50.828;4.718;2023-09-08T13:56:37;35.30;99.90
18240;DHT22;9244;50.828;4.718;2023-09-08T13:59:03;34.90;99.90
18240;DHT22;9244;50.828;4.718;2023-09-08T14:01:29;35.10;99.90
18240;DHT22;9244;50.828;4.718;2023-09-08T14:03:57;34.80;99.90
18240;DHT22;9244;50.828;4.718;2023-09-08T14:06:23;34.90;99.90
18240;DHT22;9244;50.828;4.718;2023-09-08T14:08:50;34.80;99.90
18240;DHT22;9244;50.828;4.718;2023-09-08T14:11:15;34.70;99.90
18240;DHT22;9244;50.828;4.718;2023-09-08T14:13:41;34.30;99.90
18240;DHT22;9244;50.828;4.718;2023-09-08T14:16:08;34.40;99.90
18240;DHT22;9244;50.828;4.718;2023-09-08T14:18:34;34.00;99.90
18240;DHT22;9244;50.828;4.718;2023-09-08T14:21:00;33.90;99.90
18240;DHT22;9244;50.828;4.718;2023-09-08T14:23:26;33.90;99.90
18240;DHT22;9244;50.828;4.718;2023-09-08T14:25:51;33.90;99.90
18240;DHT22;9244;50.828;4.718;2023-09-08T14:28:18;33.70;99.90
18240;DHT22;9244;50.828;4.718;2023-09-08T14:30:43;33.70;99.90
18240;DHT22;9244;50.828;4.718;2023-09-08T14:33:10;33.70;99.90
18240;DHT22;9244;50.828;4.718;2023-09-08T14:35:35;34.00;99.90
18240;DHT22;9244;50.828;4.718;2023-09-08T14:38:01;33.70;99.90
18240;DHT22;9244;50.828;4.718;2023-09-08T14:40:27;33.50;99.90
18240;DHT22;9244;50.828;4.718;2023-09-08T14:42:52;33.50;99.90
18240;DHT22;9244;50.828;4.718;2023-09-08T14:45:18;33.70;99.90
18240;DHT22;9244;50.828;4.718;2023-09-08T14:47:43;33.80;99.90
18240;DHT22;9244;50.828;4.718;2023-09-08T14:50:09;33.30;99.90
18240;DHT22;9244;50.828;4.718;2023-09-08T14:52:35;33.00;99.90
18240;DHT22;9244;50.828;4.718;2023-09-08T14:55:00;32.90;99.90
18240;DHT22;9244;50.828;4.718;2023-09-08T14:57:26;32.80;99.90
18240;DHT22;9244;50.828;4.718;2023-09-08T14:59:52;32.90;99.90
18240;DHT22;9244;50.828;4.718;2023-09-08T15:02:21;33.20;99.90
18240;DHT22;9244;50.828;4.718;2023-09-08T15:04:47;33.20;99.90
18240;DHT22;9244;50.828;4.718;2023-09-08T15:07:12;33.20;99.90
18240;DHT22;9244;50.828;4.718;2023-09-08T15:09:38;33.00;99.90
18240;DHT22;9244;50.828;4.718;2023-09-08T15:12:04;32.50;99.90
18240;DHT22;9244;50.828;4.718;2023-09-08T15:14:29;32.40;99.90
18240;DHT22;9244;50.828;4.718;2023-09-08T15:16:55;32.40;99.90
18240;DHT22;9244;50.828;4.718;2023-09-08T15:19:20;32.30;99.90
18240;DHT22;9244;50.828;4.718;2023-09-08T15:21:46;32.20;99.90
18240;DHT22;9244;50.828;4.718;2023-09-08T15:24:12;32.40;99.90
18240;DHT22;9244;50.828;4.718;2023-09-08T15:26:37;32.50;99.90
18240;DHT22;9244;50.828;4.718;2023-09-08T15:29:04;32.60;99.90
18240;DHT22;9244;50.828;4.718;2023-09-08T15:31:30;32.70;99.90
18240;DHT22;9244;50.828;4.718;2023-09-08T15:33:56;32.70;99.90
18240;DHT22;9244;50.828;4.718;2023-09-08T15:36:21;32.60;99.90
18240;DHT22;9244;50.828;4.718;2023-09-08T15:38:47;32.30;99.90
18240;DHT22;9244;50.828;4.718;2023-09-08T15:41:15;32.20;99.90
18240;DHT22;9244;50.828;4.718;2023-09-08T15:43:51;32.00;99.90
18240;DHT22;9244;50.828;4.718;2023-09-08T15:46:17;31.80;99.90